createdAt,value
2019-06-26T00:00:08.998Z,8.75
2019-06-26T00:02:35.204Z,9.13
2019-06-26T00:05:01.462Z,8.03
2019-06-26T00:07:27.654Z,8.58
2019-06-26T00:09:53.814Z,9.15
2019-06-26T00:12:20.027Z,8.55
2019-06-26T00:14:46.193Z,9.68
2019-06-26T00:17:12.396Z,9.78
2019-06-26T00:19:38.537Z,8.33
2019-06-26T00:22:04.741Z,9.28
2019-06-26T00:24:30.914Z,9.20
2019-06-26T00:26:57.095Z,11.33
2019-06-26T00:29:23.291Z,10.95
2019-06-26T00:31:49.467Z,10.75
2019-06-26T00:34:15.666Z,9.28
2019-06-26T00:36:41.912Z,9.65
2019-06-26T00:39:08.130Z,9.80
2019-06-26T00:41:34.572Z,12.43
2019-06-26T00:44:00.785Z,9.40
2019-06-26T00:46:26.991Z,10.23
2019-06-26T00:48:53.133Z,9.93
2019-06-26T00:51:19.337Z,10.70
2019-06-26T00:53:45.515Z,10.03
2019-06-26T00:56:11.719Z,9.23
2019-06-26T00:58:37.875Z,9.23
2019-06-26T01:01:04.081Z,9.08
2019-06-26T01:03:30.246Z,9.55
2019-06-26T01:05:56.412Z,9.05
2019-06-26T01:08:22.614Z,13.08
2019-06-26T01:10:48.807Z,9.98
2019-06-26T01:13:14.957Z,9.65
2019-06-26T01:15:41.154Z,9.40
2019-06-26T01:18:07.340Z,9.50
2019-06-26T01:20:33.587Z,9.83
2019-06-26T01:22:59.753Z,9.53
2019-06-26T01:25:25.920Z,9.98
2019-06-26T01:27:52.110Z,10.68
2019-06-26T01:30:18.598Z,10.95
2019-06-26T01:32:44.767Z,11.33
2019-06-26T01:35:11.449Z,9.50
2019-06-26T01:37:37.635Z,9.43
2019-06-26T01:40:05.913Z,9.30
2019-06-26T01:42:32.083Z,10.30
2019-06-26T01:44:58.265Z,10.43
2019-06-26T01:47:24.442Z,10.18
2019-06-26T01:49:50.589Z,13.22
2019-06-26T01:52:16.777Z,11.65
2019-06-26T01:54:42.977Z,9.95
2019-06-26T01:57:09.171Z,12.80
2019-06-26T01:59:35.365Z,10.30
2019-06-26T02:02:01.524Z,11.80
2019-06-26T02:04:27.712Z,10.38
2019-06-26T02:06:53.905Z,11.10
2019-06-26T02:09:20.099Z,11.80
2019-06-26T02:11:46.281Z,11.12
2019-06-26T02:14:12.487Z,14.10
2019-06-26T02:16:38.642Z,10.53
2019-06-26T02:19:09.412Z,12.15
2019-06-26T02:21:35.628Z,12.23
2019-06-26T02:24:01.835Z,11.40
2019-06-26T02:26:27.987Z,13.18
2019-06-26T02:28:54.152Z,10.45
2019-06-26T02:31:20.341Z,10.63
2019-06-26T02:33:46.529Z,12.65
2019-06-26T02:36:12.671Z,11.12
2019-06-26T02:38:38.836Z,11.83
2019-06-26T02:41:05.046Z,12.47
2019-06-26T02:43:31.283Z,14.15
2019-06-26T02:45:57.471Z,12.78
2019-06-26T02:48:23.634Z,13.85
2019-06-26T02:50:49.868Z,13.60
2019-06-26T02:53:16.266Z,13.58
2019-06-26T02:55:42.432Z,11.40
2019-06-26T02:58:08.610Z,11.75
2019-06-26T03:00:34.797Z,14.05
2019-06-26T03:03:00.965Z,11.43
2019-06-26T03:05:27.157Z,13.48
2019-06-26T03:07:53.367Z,14.25
2019-06-26T03:10:19.537Z,10.38
2019-06-26T03:12:46.056Z,10.82
2019-06-26T03:15:12.915Z,13.83
2019-06-26T03:17:54.065Z,12.13
2019-06-26T03:20:07.769Z,12.75
2019-06-26T03:22:33.940Z,13.22
2019-06-26T03:25:00.143Z,11.18
2019-06-26T03:27:26.327Z,11.80
2019-06-26T03:29:52.476Z,12.70
2019-06-26T03:32:18.663Z,12.75
2019-06-26T03:34:44.827Z,16.60
2019-06-26T03:37:10.957Z,12.60
2019-06-26T03:39:37.132Z,13.00
2019-06-26T03:42:03.314Z,15.85
2019-06-26T03:44:29.648Z,16.40
2019-06-26T03:46:55.865Z,14.33
2019-06-26T03:49:22.056Z,13.10
2019-06-26T03:51:48.210Z,14.00
2019-06-26T03:54:14.394Z,13.53
2019-06-26T03:56:40.536Z,14.38
2019-06-26T03:59:06.688Z,16.20
2019-06-26T04:01:32.856Z,15.03
2019-06-26T04:03:59.016Z,15.00
2019-06-26T04:06:25.206Z,17.17
2019-06-26T04:08:51.402Z,13.38
2019-06-26T04:11:17.596Z,14.70
2019-06-26T04:13:43.747Z,13.55
2019-06-26T04:16:09.931Z,17.87
2019-06-26T04:18:36.088Z,13.80
2019-06-26T04:21:02.374Z,18.30
2019-06-26T04:23:28.589Z,14.13
2019-06-26T04:25:54.780Z,14.28
2019-06-26T04:28:20.932Z,14.98
2019-06-26T04:30:47.120Z,17.17
2019-06-26T04:33:13.268Z,13.93
2019-06-26T04:35:39.745Z,20.65
2019-06-26T04:38:05.940Z,17.70
2019-06-26T04:40:32.135Z,17.23
2019-06-26T04:42:58.326Z,15.53
2019-06-26T04:45:24.492Z,19.50
2019-06-26T04:47:51.030Z,15.40
2019-06-26T04:50:18.377Z,13.60
2019-06-26T04:52:44.563Z,14.58
2019-06-26T04:55:10.935Z,15.65
2019-06-26T04:57:37.128Z,15.43
2019-06-26T05:00:05.587Z,15.85
2019-06-26T05:02:31.783Z,15.40
2019-06-26T05:04:57.952Z,19.98
2019-06-26T05:07:24.147Z,15.97
2019-06-26T05:09:50.340Z,21.30
2019-06-26T05:12:16.538Z,15.23
2019-06-26T05:14:42.715Z,15.05
2019-06-26T05:17:08.996Z,19.70
2019-06-26T05:19:35.674Z,15.93
2019-06-26T05:22:01.846Z,15.63
2019-06-26T05:24:28.060Z,20.57
2019-06-26T05:26:54.239Z,20.65
2019-06-26T05:29:20.439Z,18.70
2019-06-26T05:31:46.634Z,16.97
2019-06-26T05:34:12.834Z,16.65
2019-06-26T05:36:38.992Z,21.12
2019-06-26T05:39:05.899Z,19.87
2019-06-26T05:41:32.093Z,21.07
2019-06-26T05:43:58.271Z,19.45
2019-06-26T05:46:30.940Z,23.15
2019-06-26T05:48:52.649Z,19.07
2019-06-26T05:51:19.097Z,20.30
2019-06-26T05:53:45.247Z,20.08
2019-06-26T05:56:11.438Z,22.82
2019-06-26T05:58:37.684Z,21.40
2019-06-26T06:01:04.367Z,23.57
2019-06-26T06:03:30.536Z,20.62
2019-06-26T06:05:56.833Z,24.47
2019-06-26T06:08:23.048Z,26.05
2019-06-26T06:10:49.242Z,33.65
2019-06-26T06:13:15.466Z,30.72
2019-06-26T06:15:41.635Z,27.93
2019-06-26T06:18:07.893Z,24.25
2019-06-26T06:20:38.159Z,27.60
2019-06-26T06:23:04.974Z,23.65
2019-06-26T06:25:31.131Z,22.98
2019-06-26T06:27:57.629Z,20.77
2019-06-26T06:30:23.820Z,23.55
2019-06-26T06:32:50.182Z,23.67
2019-06-26T06:35:16.394Z,18.52
2019-06-26T06:37:42.632Z,32.53
2019-06-26T06:40:09.189Z,19.42
2019-06-26T06:42:35.630Z,23.55
2019-06-26T06:45:04.483Z,21.33
2019-06-26T06:47:30.637Z,20.70
2019-06-26T06:49:56.990Z,18.75
2019-06-26T06:52:23.291Z,23.85
2019-06-26T06:54:49.688Z,20.30
2019-06-26T06:57:15.987Z,22.37
2019-06-26T06:59:42.178Z,17.27
2019-06-26T07:02:08.396Z,18.05
2019-06-26T07:04:34.715Z,20.90
2019-06-26T07:07:01.151Z,22.13
2019-06-26T07:09:27.789Z,23.35
2019-06-26T07:11:54.505Z,18.98
2019-06-26T07:14:20.959Z,14.90
2019-06-26T07:16:48.021Z,14.28
2019-06-26T07:19:14.228Z,16.07
2019-06-26T07:21:40.653Z,16.97
2019-06-26T07:24:07.352Z,15.10
2019-06-26T07:26:34.085Z,13.65
2019-06-26T07:29:00.375Z,14.87
2019-06-26T07:31:27.211Z,15.18
2019-06-26T07:33:55.827Z,16.32
2019-06-26T07:36:22.061Z,15.35
2019-06-26T07:38:48.385Z,11.88
2019-06-26T07:41:15.086Z,14.70
2019-06-26T07:43:41.638Z,15.25
2019-06-26T07:46:07.977Z,10.93
2019-06-26T07:48:34.734Z,14.95
2019-06-26T07:51:01.447Z,12.15
2019-06-26T07:53:27.907Z,15.98
2019-06-26T07:55:54.464Z,12.78
2019-06-26T07:58:21.640Z,14.75
2019-06-26T08:00:48.454Z,9.80
2019-06-26T08:03:15.453Z,13.22
2019-06-26T08:05:43.199Z,11.08
2019-06-26T08:08:12.190Z,12.53
2019-06-26T08:10:38.336Z,15.53
2019-06-26T08:13:07.090Z,14.80
2019-06-26T08:15:33.982Z,14.50
2019-06-26T08:18:01.627Z,13.18
2019-06-26T08:20:28.746Z,13.78
2019-06-26T08:22:55.141Z,10.88
2019-06-26T08:25:21.758Z,11.88
2019-06-26T08:27:48.947Z,12.90
2019-06-26T08:30:15.755Z,13.18
2019-06-26T08:32:42.320Z,12.80
2019-06-26T08:35:09.011Z,16.35
2019-06-26T08:37:35.495Z,11.40
2019-06-26T08:40:04.161Z,15.18
2019-06-26T08:42:30.743Z,13.30
2019-06-26T08:44:57.286Z,10.93
2019-06-26T08:47:24.047Z,15.38
2019-06-26T08:49:50.777Z,12.05
2019-06-26T08:52:17.577Z,12.90
2019-06-26T08:54:44.219Z,18.82
2019-06-26T08:57:11.106Z,10.93
2019-06-26T08:59:37.400Z,12.88
2019-06-26T09:02:04.224Z,14.15
2019-06-26T09:04:30.816Z,12.73
2019-06-26T09:06:57.382Z,14.60
2019-06-26T09:09:24.059Z,14.78
2019-06-26T09:11:50.617Z,16.35
2019-06-26T09:14:17.485Z,11.97
2019-06-26T09:16:44.007Z,11.20
2019-06-26T09:19:10.497Z,12.58
2019-06-26T09:21:36.928Z,11.22
2019-06-26T09:24:03.432Z,12.73
2019-06-26T09:26:29.886Z,10.45
2019-06-26T09:28:56.830Z,11.88
2019-06-26T09:31:23.411Z,10.30
2019-06-26T09:33:49.768Z,13.95
2019-06-26T09:36:16.432Z,14.90
2019-06-26T09:38:43.139Z,11.00
2019-06-26T09:41:09.506Z,10.72
2019-06-26T09:43:35.966Z,9.20
2019-06-26T09:46:02.447Z,8.80
2019-06-26T09:48:28.851Z,10.80
2019-06-26T09:50:55.424Z,11.03
2019-06-26T09:53:22.230Z,10.32
2019-06-26T09:55:49.001Z,10.55
2019-06-26T09:58:15.319Z,9.15
2019-06-26T10:00:41.983Z,9.18
2019-06-26T10:03:09.625Z,8.73
2019-06-26T10:05:36.236Z,8.03
2019-06-26T10:08:02.909Z,11.15
2019-06-26T10:10:29.497Z,10.72
2019-06-26T10:12:55.932Z,7.95
2019-06-26T10:15:22.519Z,8.55
2019-06-26T10:17:49.154Z,11.70
2019-06-26T10:20:17.391Z,10.08
2019-06-26T10:22:44.207Z,10.75
2019-06-26T10:25:11.744Z,8.93
2019-06-26T10:27:38.711Z,8.35
2019-06-26T10:30:06.137Z,9.88
2019-06-26T10:32:33.262Z,8.65
2019-06-26T10:34:59.865Z,8.15
2019-06-26T10:37:26.508Z,10.28
2019-06-26T10:39:53.352Z,8.00
2019-06-26T10:42:19.804Z,11.05
2019-06-26T10:44:46.500Z,6.80
2019-06-26T10:47:13.067Z,11.15
2019-06-26T10:49:39.389Z,9.48
2019-06-26T10:52:05.730Z,9.35
2019-06-26T10:54:31.938Z,12.23
2019-06-26T10:56:58.361Z,10.03
2019-06-26T10:59:24.674Z,7.50
2019-06-26T11:01:50.972Z,8.60
2019-06-26T11:04:17.230Z,10.35
2019-06-26T11:06:43.407Z,8.00
2019-06-26T11:09:09.676Z,10.78
2019-06-26T11:11:35.936Z,13.90
2019-06-26T11:14:03.710Z,10.03
2019-06-26T11:16:29.999Z,8.60
2019-06-26T11:18:56.266Z,12.05
2019-06-26T11:21:22.439Z,8.38
2019-06-26T11:23:48.744Z,9.08
2019-06-26T11:26:15.311Z,11.43
2019-06-26T11:28:41.500Z,8.15
2019-06-26T11:31:07.819Z,10.23
2019-06-26T11:33:34.115Z,7.37
2019-06-26T11:36:00.595Z,13.30
2019-06-26T11:38:26.909Z,10.93
2019-06-26T11:40:53.199Z,12.78
2019-06-26T11:43:19.512Z,8.88
2019-06-26T11:45:45.743Z,8.53
2019-06-26T11:48:12.167Z,9.00
2019-06-26T11:50:38.381Z,9.85
2019-06-26T11:53:04.565Z,12.45
2019-06-26T11:55:30.875Z,13.68
2019-06-26T11:57:57.145Z,15.10
2019-06-26T12:00:24.409Z,7.80
2019-06-26T12:02:50.711Z,9.28
2019-06-26T12:05:18.963Z,8.53
2019-06-26T12:07:45.165Z,10.00
2019-06-26T12:10:13.121Z,11.50
2019-06-26T12:12:39.484Z,17.80
2019-06-26T12:15:07.872Z,11.08
2019-06-26T12:17:34.120Z,10.15
2019-06-26T12:20:17.168Z,8.90
2019-06-26T12:22:28.852Z,12.20
2019-06-26T12:24:55.035Z,11.60
2019-06-26T12:27:21.258Z,6.65
2019-06-26T12:29:47.509Z,14.87
2019-06-26T12:32:13.739Z,7.67
2019-06-26T12:34:39.918Z,11.53
2019-06-26T12:37:06.138Z,9.98
2019-06-26T12:39:32.351Z,12.40
2019-06-26T12:41:58.557Z,10.82
2019-06-26T12:44:24.840Z,9.08
2019-06-26T12:46:51.013Z,8.80
2019-06-26T12:49:17.278Z,10.05
2019-06-26T12:51:43.583Z,11.85
2019-06-26T12:54:09.748Z,7.78
2019-06-26T12:56:36.067Z,11.48
2019-06-26T12:59:02.406Z,11.68
2019-06-26T13:01:28.797Z,10.28
2019-06-26T13:03:55.041Z,12.15
2019-06-26T13:06:21.234Z,9.60
2019-06-26T13:08:47.513Z,9.80
2019-06-26T13:11:13.985Z,14.43
2019-06-26T13:13:40.198Z,14.25
2019-06-26T13:16:06.409Z,15.08
2019-06-26T13:18:32.802Z,13.60
2019-06-26T13:20:58.988Z,12.35
2019-06-26T13:23:25.409Z,10.72
2019-06-26T13:25:51.601Z,17.65
2019-06-26T13:28:17.796Z,14.87
2019-06-26T13:30:44.050Z,18.02
2019-06-26T13:33:10.277Z,12.88
2019-06-26T13:35:36.580Z,14.78
2019-06-26T13:38:03.322Z,8.75
2019-06-26T13:40:29.651Z,13.05
2019-06-26T13:42:55.974Z,12.15
2019-06-26T13:45:22.260Z,11.30
2019-06-26T13:47:48.564Z,17.00
2019-06-26T13:50:15.395Z,15.72
2019-06-26T13:52:41.649Z,15.80
2019-06-26T13:55:09.137Z,19.35
2019-06-26T13:57:35.350Z,14.83
2019-06-26T14:00:04.348Z,10.18
2019-06-26T14:02:30.555Z,12.43
2019-06-26T14:04:56.791Z,12.15
2019-06-26T14:07:23.026Z,10.40
2019-06-26T14:09:49.398Z,15.20
2019-06-26T14:12:18.996Z,21.00
2019-06-26T14:14:56.786Z,14.33
2019-06-26T14:17:12.125Z,10.68
2019-06-26T14:19:38.318Z,13.68
2019-06-26T14:22:04.650Z,19.85
2019-06-26T14:24:30.871Z,13.72
2019-06-26T14:26:57.120Z,17.27
2019-06-26T14:29:23.858Z,12.90
2019-06-26T14:31:50.153Z,13.68
2019-06-26T14:34:16.337Z,17.52
2019-06-26T14:36:42.906Z,11.90
2019-06-26T14:39:09.093Z,12.37
2019-06-26T14:41:38.988Z,10.53
2019-06-26T14:44:03.562Z,17.30
2019-06-26T14:46:29.789Z,12.95
2019-06-26T14:48:56.025Z,13.68
2019-06-26T14:51:22.384Z,10.68
2019-06-26T14:53:48.698Z,13.88
2019-06-26T14:56:14.952Z,13.03
2019-06-26T14:58:41.625Z,11.85
2019-06-26T15:01:08.213Z,13.28
2019-06-26T15:03:34.717Z,13.50
2019-06-26T15:06:15.463Z,9.55
2019-06-26T15:08:29.034Z,13.58
2019-06-26T15:10:55.282Z,9.60
2019-06-26T15:13:21.479Z,12.33
2019-06-26T15:15:47.749Z,12.78
2019-06-26T15:18:14.140Z,14.05
2019-06-26T15:20:40.361Z,12.15
2019-06-26T15:23:06.537Z,11.25
2019-06-26T15:25:32.787Z,14.20
2019-06-26T15:27:58.963Z,12.00
2019-06-26T15:30:25.167Z,11.97
2019-06-26T15:32:51.360Z,8.95
2019-06-26T15:35:17.537Z,9.20
2019-06-26T15:37:44.917Z,13.40
2019-06-26T15:40:13.942Z,13.22
2019-06-26T15:42:40.327Z,13.15
2019-06-26T15:45:07.099Z,13.00
2019-06-26T15:47:33.318Z,10.45
2019-06-26T15:49:59.585Z,11.83
2019-06-26T15:52:25.836Z,16.57
2019-06-26T15:54:52.199Z,11.45
2019-06-26T15:57:18.339Z,10.30
2019-06-26T15:59:44.553Z,7.55
2019-06-26T16:02:10.867Z,10.82
2019-06-26T16:04:37.079Z,9.38
2019-06-26T16:07:03.425Z,9.85
2019-06-26T16:09:29.707Z,15.98
2019-06-26T16:11:58.834Z,11.88
2019-06-26T16:14:23.977Z,8.95
2019-06-26T16:16:52.539Z,11.75
2019-06-26T16:19:23.634Z,12.98
2019-06-26T16:21:49.848Z,10.20
2019-06-26T16:24:16.189Z,9.80
2019-06-26T16:26:42.539Z,11.18
2019-06-26T16:29:08.769Z,10.48
2019-06-26T16:31:35.334Z,9.18
2019-06-26T16:34:01.564Z,11.25
2019-06-26T16:36:27.830Z,10.85
2019-06-26T16:38:54.067Z,10.35
2019-06-26T16:41:20.301Z,13.03
2019-06-26T16:43:46.836Z,13.28
2019-06-26T16:46:13.428Z,11.60
2019-06-26T16:48:39.654Z,12.07
2019-06-26T16:51:06.071Z,11.78
2019-06-26T16:53:35.389Z,9.43
2019-06-26T16:56:00.537Z,9.78
2019-06-26T16:58:26.740Z,13.88
2019-06-26T17:00:52.965Z,15.80
2019-06-26T17:03:19.173Z,9.68
2019-06-26T17:05:45.458Z,14.58
2019-06-26T17:08:11.709Z,8.78
2019-06-26T17:10:37.941Z,12.45
2019-06-26T17:13:04.199Z,12.18
2019-06-26T17:15:30.463Z,11.43
2019-06-26T17:17:56.690Z,12.53
2019-06-26T17:20:23.007Z,15.88
2019-06-26T17:23:04.607Z,11.05
2019-06-26T17:25:17.375Z,16.42
2019-06-26T17:27:43.636Z,16.12
2019-06-26T17:30:10.645Z,11.70
2019-06-26T17:32:36.862Z,17.92
2019-06-26T17:35:06.920Z,13.75
2019-06-26T17:37:33.139Z,12.33
2019-06-26T17:39:59.344Z,10.48
2019-06-26T17:42:25.627Z,10.18
2019-06-26T17:44:51.958Z,10.25
2019-06-26T17:47:18.119Z,12.80
2019-06-26T17:49:44.432Z,15.25
2019-06-26T17:52:10.618Z,12.23
2019-06-26T17:54:36.902Z,14.25
2019-06-26T17:57:03.080Z,12.10
2019-06-26T17:59:29.339Z,8.58
2019-06-26T18:01:55.681Z,10.30
2019-06-26T18:04:21.915Z,9.33
2019-06-26T18:06:48.144Z,12.50
2019-06-26T18:09:14.408Z,11.78
2019-06-26T18:11:41.165Z,9.88
2019-06-26T18:14:07.380Z,9.70
2019-06-26T18:16:33.676Z,9.98
2019-06-26T18:18:59.889Z,11.05
2019-06-26T18:21:26.104Z,12.73
2019-06-26T18:23:52.291Z,9.40
2019-06-26T18:26:18.615Z,12.20
2019-06-26T18:28:44.796Z,9.15
2019-06-26T18:31:10.979Z,9.40
2019-06-26T18:33:37.355Z,10.90
2019-06-26T18:36:03.748Z,7.90
2019-06-26T18:38:29.948Z,10.98
2019-06-26T18:40:56.265Z,8.35
2019-06-26T18:43:22.810Z,10.65
2019-06-26T18:45:48.989Z,8.70
2019-06-26T18:48:18.784Z,15.28
2019-06-26T18:50:44.982Z,12.50
2019-06-26T18:53:11.217Z,12.63
2019-06-26T18:55:37.502Z,10.38
2019-06-26T18:58:04.039Z,11.60
2019-06-26T19:00:30.269Z,7.60
2019-06-26T19:02:56.445Z,11.97
2019-06-26T19:05:22.717Z,9.15
2019-06-26T19:07:48.959Z,12.28
2019-06-26T19:10:15.350Z,8.43
2019-06-26T19:12:41.731Z,29.77
2019-06-26T19:15:09.109Z,8.18
2019-06-26T19:17:35.319Z,8.50
2019-06-26T19:20:06.215Z,10.72
2019-06-26T19:22:32.421Z,8.95
2019-06-26T19:24:58.659Z,10.58
2019-06-26T19:27:24.923Z,9.58
2019-06-26T19:29:51.162Z,10.20
2019-06-26T19:32:17.408Z,11.53
2019-06-26T19:34:43.673Z,9.30
2019-06-26T19:37:09.931Z,8.75
2019-06-26T19:39:36.526Z,12.30
2019-06-26T19:42:02.747Z,10.13
2019-06-26T19:44:28.966Z,10.18
2019-06-26T19:46:55.174Z,10.60
2019-06-26T19:49:21.430Z,9.33
2019-06-26T19:51:47.904Z,10.43
2019-06-26T19:54:26.594Z,13.13
2019-06-26T19:56:42.226Z,11.28
2019-06-26T19:59:08.479Z,12.03
2019-06-26T20:01:34.719Z,12.82
2019-06-26T20:04:01.134Z,13.58
2019-06-26T20:06:27.438Z,12.93
2019-06-26T20:08:57.458Z,11.68
2019-06-26T20:11:21.926Z,13.15
2019-06-26T20:13:48.166Z,12.95
2019-06-26T20:16:14.691Z,14.20
2019-06-26T20:18:40.953Z,13.62
2019-06-26T20:21:07.283Z,11.00
2019-06-26T20:23:33.619Z,17.40
2019-06-26T20:25:59.919Z,12.23
2019-06-26T20:28:26.169Z,13.25
2019-06-26T20:30:52.925Z,9.40
2019-06-26T20:33:19.197Z,9.40
2019-06-26T20:35:45.408Z,11.40
2019-06-26T20:38:11.685Z,10.18
2019-06-26T20:40:37.946Z,10.25
2019-06-26T20:43:04.269Z,9.78
2019-06-26T20:45:30.504Z,14.43
2019-06-26T20:47:56.744Z,11.57
2019-06-26T20:50:22.989Z,10.28
2019-06-26T20:52:49.434Z,10.82
2019-06-26T20:55:16.114Z,14.40
2019-06-26T20:57:42.579Z,12.50
2019-06-26T21:00:09.146Z,8.50
2019-06-26T21:02:35.595Z,13.50
2019-06-26T21:05:05.810Z,11.00
2019-06-26T21:07:32.109Z,11.35
2019-06-26T21:09:58.437Z,9.23
2019-06-26T21:12:24.669Z,9.90
2019-06-26T21:14:50.828Z,9.13
2019-06-26T21:17:17.019Z,10.85
2019-06-26T21:19:43.255Z,8.05
2019-06-26T21:22:09.444Z,14.28
2019-06-26T21:24:35.943Z,10.23
2019-06-26T21:27:02.163Z,10.55
2019-06-26T21:29:28.344Z,10.48
2019-06-26T21:31:54.660Z,8.75
2019-06-26T21:34:20.844Z,10.45
2019-06-26T21:36:47.087Z,10.03
2019-06-26T21:39:13.312Z,11.63
2019-06-26T21:41:39.477Z,12.65
2019-06-26T21:44:05.688Z,12.73
2019-06-26T21:46:31.906Z,8.50
2019-06-26T21:48:58.143Z,11.43
2019-06-26T21:51:24.353Z,11.40
2019-06-26T21:53:50.569Z,10.82
2019-06-26T21:56:16.741Z,8.50
2019-06-26T21:58:43.376Z,12.03
2019-06-26T22:01:09.655Z,11.22
2019-06-26T22:03:35.938Z,8.33
2019-06-26T22:06:02.256Z,10.32
2019-06-26T22:08:29.208Z,10.30
2019-06-26T22:10:55.867Z,15.75
2019-06-26T22:13:23.090Z,9.88
2019-06-26T22:15:49.492Z,11.35
2019-06-26T22:18:20.011Z,11.03
2019-06-26T22:20:46.609Z,10.25
2019-06-26T22:23:13.105Z,10.23
2019-06-26T22:25:50.762Z,10.98
2019-06-26T22:28:13.374Z,9.33
2019-06-26T22:30:39.698Z,8.95
2019-06-26T22:33:06.116Z,7.92
2019-06-26T22:35:32.744Z,9.75
2019-06-26T22:37:59.241Z,11.35
2019-06-26T22:40:25.497Z,9.13
2019-06-26T22:42:51.685Z,11.35
2019-06-26T22:45:18.031Z,10.30
2019-06-26T22:47:44.328Z,10.65
2019-06-26T22:50:10.835Z,10.80
2019-06-26T22:52:37.122Z,9.53
2019-06-26T22:55:07.329Z,9.38
2019-06-26T22:57:33.622Z,10.75
2019-06-26T22:59:59.971Z,7.55
2019-06-26T23:02:26.389Z,10.90
2019-06-26T23:04:52.668Z,9.73
2019-06-26T23:07:18.907Z,10.28
2019-06-26T23:09:45.391Z,8.15
2019-06-26T23:12:11.723Z,8.65
2019-06-26T23:14:37.939Z,8.73
2019-06-26T23:17:04.196Z,7.87
2019-06-26T23:19:30.354Z,7.67
2019-06-26T23:21:56.571Z,7.03
2019-06-26T23:24:22.818Z,9.13
2019-06-26T23:26:49.135Z,10.82
2019-06-26T23:29:15.608Z,8.30
2019-06-26T23:31:41.800Z,8.15
2019-06-26T23:34:08.041Z,5.78
2019-06-26T23:36:34.472Z,5.80
2019-06-26T23:39:00.633Z,6.83
2019-06-26T23:41:26.876Z,9.08
2019-06-26T23:43:53.097Z,6.90
2019-06-26T23:46:19.316Z,7.17
2019-06-26T23:48:45.943Z,5.37
2019-06-26T23:51:12.338Z,5.97
2019-06-26T23:53:38.562Z,6.40
2019-06-26T23:56:05.244Z,5.50
2019-06-26T23:58:31.835Z,5.50
